Time;durP1;ratioP1;P1;durP2;ratioP2;P2;SDS_P1;SDS_P2;PMS_P1;PMS_P2;Temp;Humidity;BMP_temperature;BMP_pressure;BME280_temperature;BME280_humidity;BME280_pressure;Samples;Min_cycle;Max_cycle;Signal;HPM_P1;HPM_P2
2023/05/28 00:00:21;;;;;;;0.10;0.10;;;;;;;;;;6201151;23;20024;-79
2023/05/28 00:02:47;;;;;;;0.00;0.00;;;;;;;;;;6201257;23;20017;-79
2023/05/28 00:05:13;;;;;;;0.10;0.10;;;;;;;;;;6174024;23;20122;-80
2023/05/28 00:07:41;;;;;;;0.10;0.10;;;;;;;;;;6199658;23;20024;-79
2023/05/28 00:10:07;;;;;;;0.10;0.10;;;;;;;;;;6198461;23;20404;-79
2023/05/28 00:12:33;;;;;;;0.10;0.10;;;;;;;;;;6198638;23;20530;-79
2023/05/28 00:15:00;;;;;;;0.10;0.10;;;;;;;;;;6197569;23;20090;-79
2023/05/28 00:17:26;;;;;;;0.10;0.10;;;;;;;;;;6200455;23;20096;-79
2023/05/28 00:19:52;;;;;;;5.38;1.13;;;;;;;;;;6198375;23;20027;-79
2023/05/28 00:22:18;;;;;;;0.10;0.10;;;;;;;;;;6198007;23;20024;-79
2023/05/28 00:24:44;;;;;;;0.10;0.10;;;;;;;;;;6197911;23;20024;-79
2023/05/28 00:27:10;;;;;;;4.45;1.20;;;;;;;;;;6199351;23;20449;-79
2023/05/28 00:29:36;;;;;;;0.10;0.10;;;;;;;;;;6199519;23;20451;-79
2023/05/28 00:32:02;;;;;;;0.10;0.10;;;;;;;;;;6197451;23;20020;-79
2023/05/28 00:34:28;;;;;;;0.10;0.10;;;;;;;;;;6173145;23;20025;-79
2023/05/28 00:36:54;;;;;;;0.10;0.10;;;;;;;;;;6198264;23;20016;-79
2023/05/28 00:39:21;;;;;;;0.10;0.10;;;;;;;;;;6197649;23;20020;-79
2023/05/28 00:41:47;;;;;;;0.10;0.10;;;;;;;;;;6199864;23;20040;-79
2023/05/28 00:44:13;;;;;;;0.10;0.10;;;;;;;;;;6197551;23;20070;-79
2023/05/28 00:46:44;;;;;;;0.10;0.10;;;;;;;;;;6198460;23;20625;-79
2023/05/28 00:49:11;;;;;;;0.10;0.10;;;;;;;;;;6199333;23;20016;-79
2023/05/28 00:51:37;;;;;;;0.10;0.10;;;;;;;;;;6198631;23;20029;-78
2023/05/28 00:54:04;;;;;;;0.10;0.10;;;;;;;;;;6198780;23;20055;-79
2023/05/28 00:56:31;;;;;;;0.10;0.10;;;;;;;;;;6198914;23;20016;-79
2023/05/28 00:58:59;;;;;;;0.10;0.10;;;;;;;;;;6173546;23;20024;-79
2023/05/28 01:01:27;;;;;;;0.10;0.10;;;;;;;;;;6199894;23;20027;-79
2023/05/28 01:03:53;;;;;;;0.10;0.10;;;;;;;;;;6199886;23;20024;-79
2023/05/28 01:06:21;;;;;;;0.50;0.50;;;;;;;;;;6172459;23;20595;-79
2023/05/28 01:08:48;;;;;;;0.52;0.52;;;;;;;;;;6198675;23;20027;-79
2023/05/28 01:11:19;;;;;;;0.22;0.22;;;;;;;;;;6198686;23;20017;-79
2023/05/28 01:13:45;;;;;;;0.85;0.85;;;;;;;;;;6197543;23;20017;-79
2023/05/28 01:16:11;;;;;;;0.10;0.10;;;;;;;;;;6198106;23;20651;-79
2023/05/28 01:18:39;;;;;;;0.10;0.10;;;;;;;;;;6198279;23;20448;-78
2023/05/28 01:21:06;;;;;;;0.10;0.10;;;;;;;;;;6197462;23;20028;-79
2023/05/28 01:23:38;;;;;;;0.00;0.00;;;;;;;;;;6199641;23;20448;-79
2023/05/28 01:26:04;;;;;;;0.00;0.00;;;;;;;;;;6198465;23;20510;-79
2023/05/28 01:28:30;;;;;;;0.10;0.10;;;;;;;;;;6171245;23;20443;-79
2023/05/28 01:30:56;;;;;;;0.00;0.00;;;;;;;;;;6197701;23;20466;-80
2023/05/28 01:33:22;;;;;;;0.10;0.10;;;;;;;;;;6197890;23;20115;-79
2023/05/28 01:35:49;;;;;;;0.13;0.13;;;;;;;;;;6173716;23;20515;-79
2023/05/28 01:38:16;;;;;;;0.25;0.25;;;;;;;;;;6173494;23;20197;-79
2023/05/28 01:40:44;;;;;;;0.10;0.10;;;;;;;;;;6199966;23;20020;-79
2023/05/28 01:43:11;;;;;;;0.10;0.10;;;;;;;;;;6200376;23;20104;-79
2023/05/28 01:45:37;;;;;;;0.00;0.00;;;;;;;;;;6198447;23;20491;-79
2023/05/28 01:48:03;;;;;;;0.10;0.10;;;;;;;;;;6173210;23;20220;-79
2023/05/28 01:50:32;;;;;;;0.95;0.95;;;;;;;;;;6198233;23;20012;-79
2023/05/28 01:52:58;;;;;;;0.00;0.00;;;;;;;;;;6197293;23;20334;-79
2023/05/28 01:55:24;;;;;;;0.00;0.00;;;;;;;;;;6197697;23;20020;-79
2023/05/28 01:57:50;;;;;;;0.10;0.10;;;;;;;;;;6197077;23;20024;-79
2023/05/28 02:00:16;;;;;;;0.10;0.10;;;;;;;;;;6199346;23;20091;-79
2023/05/28 02:02:42;;;;;;;0.10;0.10;;;;;;;;;;6199249;23;20452;-79
2023/05/28 02:05:09;;;;;;;0.10;0.10;;;;;;;;;;6199046;23;20027;-79
2023/05/28 02:07:35;;;;;;;0.10;0.10;;;;;;;;;;6199396;23;20016;-79
2023/05/28 02:10:01;;;;;;;0.00;0.00;;;;;;;;;;6197382;23;20021;-79
2023/05/28 02:12:28;;;;;;;0.10;0.10;;;;;;;;;;6198103;23;20091;-79
2023/05/28 02:14:54;;;;;;;0.10;0.10;;;;;;;;;;6198211;23;20387;-79
2023/05/28 02:17:20;;;;;;;0.10;0.10;;;;;;;;;;6198286;23;20120;-79
2023/05/28 02:19:46;;;;;;;0.10;0.10;;;;;;;;;;6196990;23;20352;-80
2023/05/28 02:22:12;;;;;;;0.10;0.10;;;;;;;;;;6198607;23;20136;-80
2023/05/28 02:24:38;;;;;;;0.10;0.10;;;;;;;;;;6172486;23;20509;-80
2023/05/28 02:27:06;;;;;;;0.10;0.10;;;;;;;;;;6197907;23;20016;-80
2023/05/28 02:29:32;;;;;;;0.43;0.43;;;;;;;;;;6197276;23;20028;-79
2023/05/28 02:31:58;;;;;;;0.10;0.10;;;;;;;;;;6196401;23;20440;-80
2023/05/28 02:34:24;;;;;;;0.10;0.10;;;;;;;;;;6197577;23;20025;-80
2023/05/28 02:36:52;;;;;;;0.10;0.10;;;;;;;;;;6199287;23;20024;-81
2023/05/28 02:39:18;;;;;;;0.10;0.10;;;;;;;;;;6198947;23;20433;-81
2023/05/28 02:41:44;;;;;;;0.05;0.05;;;;;;;;;;6199974;23;20030;-79
2023/05/28 02:44:10;;;;;;;0.10;0.10;;;;;;;;;;6199593;23;20052;-79
2023/05/28 02:46:36;;;;;;;0.10;0.10;;;;;;;;;;6198524;23;20476;-79
2023/05/28 02:49:03;;;;;;;0.10;0.10;;;;;;;;;;6199106;23;20021;-79
2023/05/28 02:51:29;;;;;;;0.10;0.10;;;;;;;;;;6199055;23;20031;-79
2023/05/28 02:53:55;;;;;;;0.10;0.10;;;;;;;;;;6198334;23;20016;-79
2023/05/28 02:56:21;;;;;;;0.10;0.10;;;;;;;;;;6197995;23;20021;-79
2023/05/28 02:58:47;;;;;;;0.57;0.50;;;;;;;;;;6198611;23;20083;-79
2023/05/28 03:01:13;;;;;;;0.10;0.10;;;;;;;;;;6199265;23;20098;-79
2023/05/28 03:03:40;;;;;;;0.10;0.10;;;;;;;;;;6199021;23;20466;-79
2023/05/28 03:06:07;;;;;;;0.10;0.10;;;;;;;;;;6199457;23;20025;-79
2023/05/28 03:08:33;;;;;;;0.10;0.10;;;;;;;;;;6200516;23;20384;-78
2023/05/28 03:10:59;;;;;;;0.10;0.10;;;;;;;;;;6199354;23;20020;-79
2023/05/28 03:13:25;;;;;;;0.00;0.00;;;;;;;;;;6198101;23;20021;-78
2023/05/28 03:15:51;;;;;;;0.20;0.20;;;;;;;;;;6200501;23;20471;-79
2023/05/28 03:18:17;;;;;;;0.00;0.00;;;;;;;;;;6199873;23;20103;-79
2023/05/28 03:20:43;;;;;;;0.10;0.10;;;;;;;;;;6198700;23;20078;-79
2023/05/28 03:23:09;;;;;;;0.10;0.10;;;;;;;;;;6197668;23;20016;-81
2023/05/28 03:25:35;;;;;;;0.10;0.10;;;;;;;;;;6200877;23;20388;-79
2023/05/28 03:28:01;;;;;;;0.10;0.10;;;;;;;;;;6199687;23;20088;-79
2023/05/28 03:30:27;;;;;;;0.10;0.10;;;;;;;;;;6199280;23;20037;-79
2023/05/28 03:32:53;;;;;;;1.98;0.85;;;;;;;;;;6199564;23;20420;-78
2023/05/28 03:35:19;;;;;;;0.10;0.10;;;;;;;;;;6200017;23;20444;-79
2023/05/28 03:37:45;;;;;;;0.10;0.10;;;;;;;;;;6198922;23;20028;-79
2023/05/28 03:40:12;;;;;;;0.10;0.10;;;;;;;;;;6201094;23;20699;-79
2023/05/28 03:42:39;;;;;;;0.10;0.10;;;;;;;;;;6198952;23;20355;-79
2023/05/28 03:45:06;;;;;;;0.10;0.10;;;;;;;;;;6201653;23;20128;-79
2023/05/28 03:47:32;;;;;;;0.10;0.10;;;;;;;;;;6200713;23;20024;-79
2023/05/28 03:49:59;;;;;;;0.10;0.10;;;;;;;;;;6199101;23;20025;-79
2023/05/28 03:52:25;;;;;;;0.10;0.10;;;;;;;;;;6198479;23;20027;-79
2023/05/28 03:54:51;;;;;;;0.55;0.55;;;;;;;;;;6197962;23;20151;-79
2023/05/28 03:57:17;;;;;;;0.10;0.10;;;;;;;;;;6198300;23;20491;-79
2023/05/28 03:59:43;;;;;;;0.10;0.10;;;;;;;;;;6198419;23;20020;-78
2023/05/28 04:02:09;;;;;;;0.10;0.10;;;;;;;;;;6198087;23;20030;-78
2023/05/28 04:04:36;;;;;;;1.35;1.35;;;;;;;;;;6198635;23;20479;-79
2023/05/28 04:07:02;;;;;;;0.10;0.10;;;;;;;;;;6198816;23;20048;-79
2023/05/28 04:09:28;;;;;;;0.28;0.28;;;;;;;;;;6198525;23;20031;-79
2023/05/28 04:11:54;;;;;;;0.10;0.10;;;;;;;;;;6197560;23;20079;-79
2023/05/28 04:14:20;;;;;;;0.10;0.10;;;;;;;;;;6200127;23;20021;-79
2023/05/28 04:16:46;;;;;;;0.10;0.10;;;;;;;;;;6198809;23;20028;-79
2023/05/28 04:19:12;;;;;;;0.10;0.10;;;;;;;;;;6200240;23;20026;-79
2023/05/28 04:21:38;;;;;;;0.10;0.10;;;;;;;;;;6199933;23;20016;-79
2023/05/28 04:24:04;;;;;;;0.10;0.10;;;;;;;;;;6200682;23;20066;-79
2023/05/28 04:26:31;;;;;;;0.20;0.20;;;;;;;;;;6199796;23;20464;-79
2023/05/28 04:28:59;;;;;;;0.10;0.10;;;;;;;;;;6198489;23;20025;-79
2023/05/28 04:31:29;;;;;;;0.20;0.20;;;;;;;;;;6197850;23;20024;-79
2023/05/28 04:33:55;;;;;;;0.20;0.20;;;;;;;;;;6198707;23;20124;-79
2023/05/28 04:36:21;;;;;;;0.10;0.10;;;;;;;;;;6172732;23;20021;-79
2023/05/28 04:38:47;;;;;;;0.10;0.10;;;;;;;;;;6198084;23;20083;-78
2023/05/28 04:41:14;;;;;;;0.10;0.10;;;;;;;;;;6199619;23;20094;-79
2023/05/28 04:43:41;;;;;;;0.10;0.10;;;;;;;;;;6198267;23;20024;-79
2023/05/28 04:46:08;;;;;;;0.82;0.82;;;;;;;;;;6198460;23;20028;-78
2023/05/28 04:48:37;;;;;;;0.10;0.10;;;;;;;;;;6196841;23;20448;-77
2023/05/28 04:51:05;;;;;;;1.35;1.25;;;;;;;;;;6198203;23;20016;-77
2023/05/28 04:53:33;;;;;;;0.10;0.10;;;;;;;;;;6199345;23;20401;-78
2023/05/28 04:55:59;;;;;;;0.10;0.10;;;;;;;;;;6198041;23;20016;-79
2023/05/28 04:58:25;;;;;;;0.10;0.10;;;;;;;;;;6197308;23;20078;-77
2023/05/28 05:00:52;;;;;;;0.10;0.10;;;;;;;;;;6197442;23;20025;-76
2023/05/28 05:03:18;;;;;;;0.10;0.10;;;;;;;;;;6197487;23;20020;-77
2023/05/28 05:05:44;;;;;;;0.10;0.10;;;;;;;;;;6197938;23;20356;-79
2023/05/28 05:08:13;;;;;;;0.10;0.10;;;;;;;;;;6198261;23;20395;-77
2023/05/28 05:10:39;;;;;;;0.00;0.00;;;;;;;;;;6197439;23;20415;-79
2023/05/28 05:13:06;;;;;;;0.10;0.10;;;;;;;;;;6197538;23;20067;-78
2023/05/28 05:15:33;;;;;;;0.10;0.10;;;;;;;;;;6200170;23;20012;-78
2023/05/28 05:17:59;;;;;;;0.10;0.10;;;;;;;;;;6199617;23;20518;-79
2023/05/28 05:20:26;;;;;;;0.00;0.00;;;;;;;;;;6199919;23;20019;-78
2023/05/28 05:22:53;;;;;;;0.10;0.10;;;;;;;;;;6198550;23;20392;-80
2023/05/28 05:25:19;;;;;;;0.05;0.05;;;;;;;;;;6199449;23;20024;-79
2023/05/28 05:27:45;;;;;;;30.30;27.93;;;;;;;;;;6197277;23;20347;-78
2023/05/28 05:30:11;;;;;;;34.13;31.27;;;;;;;;;;6197171;23;20028;-78
2023/05/28 05:32:37;;;;;;;35.65;32.75;;;;;;;;;;6195924;23;20430;-78
2023/05/28 05:35:03;;;;;;;240.70;63.28;;;;;;;;;;6198332;23;20360;-78
2023/05/28 05:37:29;;;;;;;241.60;63.33;;;;;;;;;;6197879;23;20422;-78
2023/05/28 05:39:55;;;;;;;243.57;63.42;;;;;;;;;;6196444;23;20450;-79
2023/05/28 05:42:21;;;;;;;246.90;64.30;;;;;;;;;;6196631;23;20387;-76
2023/05/28 05:44:47;;;;;;;252.68;65.05;;;;;;;;;;6198107;23;20370;-80
2023/05/28 05:47:13;;;;;;;257.50;66.13;;;;;;;;;;6195952;23;20367;-76
2023/05/28 05:49:39;;;;;;;261.40;73.20;;;;;;;;;;6192985;23;20429;-75
2023/05/28 05:52:06;;;;;;;262.88;67.88;;;;;;;;;;6194896;23;20399;-77
2023/05/28 05:54:32;;;;;;;262.60;70.88;;;;;;;;;;6197208;23;20359;-76
2023/05/28 05:56:59;;;;;;;269.90;73.40;;;;;;;;;;6192707;23;20486;-78
2023/05/28 05:59:25;;;;;;;271.50;71.93;;;;;;;;;;6198286;23;20403;-78
2023/05/28 06:01:51;;;;;;;271.30;73.15;;;;;;;;;;6195241;23;20441;-77
2023/05/28 06:04:17;;;;;;;276.42;75.80;;;;;;;;;;6195309;23;20495;-77
2023/05/28 06:06:44;;;;;;;284.75;86.22;;;;;;;;;;6191545;23;20382;-77
2023/05/28 06:09:10;;;;;;;275.17;72.40;;;;;;;;;;6195893;23;20378;-78
2023/05/28 06:11:37;;;;;;;271.67;69.93;;;;;;;;;;6195925;23;20396;-76
2023/05/28 06:14:03;;;;;;;273.30;69.78;;;;;;;;;;6196463;23;20450;-77
2023/05/28 06:16:29;;;;;;;272.63;69.18;;;;;;;;;;6197477;23;20387;-78
2023/05/28 06:18:55;;;;;;;271.17;68.30;;;;;;;;;;6171429;23;20422;-77
2023/05/28 06:21:22;;;;;;;276.15;70.95;;;;;;;;;;6198060;23;20373;-76
2023/05/28 06:23:48;;;;;;;276.80;69.88;;;;;;;;;;6197621;23;20454;-77
2023/05/28 06:26:14;;;;;;;272.40;66.68;;;;;;;;;;6200550;23;20522;-77
2023/05/28 06:28:40;;;;;;;280.17;75.68;;;;;;;;;;6198268;23;20433;-77
2023/05/28 06:31:06;;;;;;;278.27;74.78;;;;;;;;;;6197605;23;20395;-77
2023/05/28 06:33:32;;;;;;;277.98;70.70;;;;;;;;;;6197184;23;20419;-77
2023/05/28 06:35:58;;;;;;;275.27;68.57;;;;;;;;;;6198173;23;20379;-77
2023/05/28 06:38:24;;;;;;;277.88;70.63;;;;;;;;;;6198408;23;20371;-77
2023/05/28 06:40:50;;;;;;;278.27;71.28;;;;;;;;;;6198082;23;20442;-76
2023/05/28 06:43:16;;;;;;;277.00;69.47;;;;;;;;;;6197320;23;20376;-78
2023/05/28 06:45:42;;;;;;;277.80;68.20;;;;;;;;;;6198215;23;20368;-77
2023/05/28 06:48:08;;;;;;;277.52;69.25;;;;;;;;;;6197352;23;20434;-77
2023/05/28 06:50:35;;;;;;;274.23;67.75;;;;;;;;;;6198485;23;20368;-77
2023/05/28 06:53:02;;;;;;;275.33;68.00;;;;;;;;;;6197312;23;20372;-77
2023/05/28 06:55:28;;;;;;;277.42;69.60;;;;;;;;;;6198247;23;20418;-78
2023/05/28 06:57:54;;;;;;;282.15;73.85;;;;;;;;;;6200499;23;20366;-81
2023/05/28 07:00:21;;;;;;;282.55;75.00;;;;;;;;;;6197141;23;20798;-77
2023/05/28 07:02:47;;;;;;;280.23;69.40;;;;;;;;;;6196690;23;20655;-78
2023/05/28 07:05:13;;;;;;;280.98;70.05;;;;;;;;;;6170697;23;20695;-78
2023/05/28 07:07:39;;;;;;;277.95;67.38;;;;;;;;;;6198454;23;21054;-79
2023/05/28 07:10:06;;;;;;;275.13;65.65;;;;;;;;;;6197654;23;20375;-78
2023/05/28 07:12:32;;;;;;;284.65;70.72;;;;;;;;;;6198329;23;20395;-75
2023/05/28 07:14:58;;;;;;;286.75;75.93;;;;;;;;;;6197348;23;20429;-75
2023/05/28 07:17:24;;;;;;;282.15;69.80;;;;;;;;;;6171454;23;20459;-76
2023/05/28 07:19:50;;;;;;;282.35;69.45;;;;;;;;;;6198229;23;20375;-79
2023/05/28 07:22:16;;;;;;;286.02;74.28;;;;;;;;;;6199230;23;20375;-78
2023/05/28 07:24:42;;;;;;;286.10;73.90;;;;;;;;;;6197833;23;20847;-78
2023/05/28 07:27:09;;;;;;;282.65;72.65;;;;;;;;;;6198176;23;20458;-78
2023/05/28 07:29:35;;;;;;;487.98;293.02;;;;;;;;;;6197663;23;20824;-78
2023/05/28 07:32:01;;;;;;;490.25;296.17;;;;;;;;;;6197644;23;20448;-79
2023/05/28 07:34:27;;;;;;;487.67;294.85;;;;;;;;;;6197471;23;20426;-79
2023/05/28 07:36:53;;;;;;;491.47;310.70;;;;;;;;;;6197999;23;20846;-80
2023/05/28 07:39:19;;;;;;;491.60;306.57;;;;;;;;;;6172478;23;20496;-79
2023/05/28 07:41:45;;;;;;;490.35;299.55;;;;;;;;;;6199996;23;20666;-78
2023/05/28 07:44:12;;;;;;;503.48;335.90;;;;;;;;;;6196679;23;20454;-79
2023/05/28 07:46:38;;;;;;;501.30;331.55;;;;;;;;;;6172939;23;20380;-78
2023/05/28 07:49:04;;;;;;;505.92;335.25;;;;;;;;;;6198013;23;20387;-79
2023/05/28 07:51:31;;;;;;;508.67;345.42;;;;;;;;;;6198761;23;20387;-78
2023/05/28 07:53:57;;;;;;;510.60;352.75;;;;;;;;;;6196599;23;20794;-79
2023/05/28 07:56:23;;;;;;;506.95;350.58;;;;;;;;;;6197683;23;20399;-79
2023/05/28 07:58:49;;;;;;;487.90;311.63;;;;;;;;;;6197510;23;20450;-78
2023/05/28 08:01:15;;;;;;;491.25;303.55;;;;;;;;;;6196517;23;20382;-79
2023/05/28 08:03:41;;;;;;;504.70;340.02;;;;;;;;;;6199063;23;20988;-80
2023/05/28 08:06:11;;;;;;;424.23;221.20;;;;;;;;;;6199002;23;20409;-78
2023/05/28 08:08:37;;;;;;;487.65;313.42;;;;;;;;;;6197226;23;20375;-80
2023/05/28 08:11:03;;;;;;;506.50;352.65;;;;;;;;;;6197720;23;20435;-79
2023/05/28 08:13:29;;;;;;;465.27;276.35;;;;;;;;;;6196973;23;20371;-80
2023/05/28 08:15:55;;;;;;;406.83;226.40;;;;;;;;;;6196785;23;20378;-79
2023/05/28 08:18:21;;;;;;;366.33;187.45;;;;;;;;;;6198636;23;20366;-78
2023/05/28 08:20:48;;;;;;;441.90;271.30;;;;;;;;;;6195145;23;20408;-78
2023/05/28 08:23:14;;;;;;;422.58;238.07;;;;;;;;;;6196180;23;20387;-79
2023/05/28 08:25:40;;;;;;;402.77;216.85;;;;;;;;;;6196102;23;20376;-79
2023/05/28 08:28:09;;;;;;;411.80;216.27;;;;;;;;;;6196788;23;20435;-80
2023/05/28 08:30:35;;;;;;;441.23;245.80;;;;;;;;;;6196035;23;20418;-76
2023/05/28 08:33:02;;;;;;;378.90;182.93;;;;;;;;;;6195574;23;20485;-78
2023/05/28 08:35:28;;;;;;;345.77;164.73;;;;;;;;;;6172175;23;20473;-77
2023/05/28 08:37:54;;;;;;;359.30;170.00;;;;;;;;;;6196849;23;20379;-78
2023/05/28 08:40:20;;;;;;;394.23;186.05;;;;;;;;;;6197011;23;20364;-78
2023/05/28 08:42:46;;;;;;;432.70;230.37;;;;;;;;;;6197593;23;20830;-77
2023/05/28 08:45:12;;;;;;;385.73;175.80;;;;;;;;;;6196689;23;20383;-77
2023/05/28 08:47:38;;;;;;;337.50;149.37;;;;;;;;;;6197439;23;20375;-78
2023/05/28 08:50:06;;;;;;;322.23;139.90;;;;;;;;;;6195998;23;20834;-78
2023/05/28 08:52:32;;;;;;;346.13;148.13;;;;;;;;;;6196588;23;20395;-77
2023/05/28 08:54:59;;;;;;;345.27;136.00;;;;;;;;;;6196994;23;20480;-77
2023/05/28 08:57:25;;;;;;;353.40;143.27;;;;;;;;;;6196779;23;20371;-77
2023/05/28 08:59:53;;;;;;;336.92;133.73;;;;;;;;;;6197926;23;20388;-76
2023/05/28 09:02:23;;;;;;;321.70;124.88;;;;;;;;;;6198449;23;20454;-77
2023/05/28 09:04:50;;;;;;;433.45;191.30;;;;;;;;;;6195830;23;20427;-77
2023/05/28 09:07:16;;;;;;;320.08;123.63;;;;;;;;;;6197688;23;20773;-77
2023/05/28 09:09:42;;;;;;;336.60;121.47;;;;;;;;;;6197084;23;20367;-77
2023/05/28 09:12:12;;;;;;;359.53;114.53;;;;;;;;;;6199341;23;20027;-77
2023/05/28 09:14:39;;;;;;;364.40;116.37;;;;;;;;;;6200288;23;20511;-78
2023/05/28 09:17:06;;;;;;;426.00;171.17;;;;;;;;;;6198345;23;20017;-79
2023/05/28 09:19:32;;;;;;;408.40;151.40;;;;;;;;;;6198728;23;20023;-78
2023/05/28 09:21:59;;;;;;;28.87;26.70;;;;;;;;;;6200363;23;20024;-79
2023/05/28 09:24:28;;;;;;;34.17;31.50;;;;;;;;;;6198127;23;20352;-78
2023/05/28 09:26:55;;;;;;;36.47;33.73;;;;;;;;;;6197778;23;20020;-80
2023/05/28 09:29:21;;;;;;;31.13;28.80;;;;;;;;;;6198813;23;20092;-78
2023/05/28 09:31:54;;;;;;;29.47;27.37;;;;;;;;;;6199161;23;20035;-79
2023/05/28 09:34:21;;;;;;;30.25;28.25;;;;;;;;;;6197614;23;20056;-79
2023/05/28 09:36:47;;;;;;;33.37;30.97;;;;;;;;;;6197682;23;20024;-78
2023/05/28 09:39:13;;;;;;;28.43;26.47;;;;;;;;;;6199419;23;20020;-79
2023/05/28 09:41:44;;;;;;;26.37;24.47;;;;;;;;;;6198120;23;20020;-79
2023/05/28 09:44:10;;;;;;;26.50;24.67;;;;;;;;;;6197060;23;20035;-76
2023/05/28 09:46:37;;;;;;;27.07;25.13;;;;;;;;;;6197413;23;20021;-77
2023/05/28 09:49:03;;;;;;;26.43;24.53;;;;;;;;;;6198706;23;20127;-77
2023/05/28 09:51:33;;;;;;;29.07;26.97;;;;;;;;;;6199694;23;20480;-77
2023/05/28 09:54:00;;;;;;;24.40;22.80;;;;;;;;;;6198900;23;20450;-77
2023/05/28 09:56:31;;;;;;;25.20;23.60;;;;;;;;;;6199586;23;20056;-77
2023/05/28 09:58:58;;;;;;;24.07;22.53;;;;;;;;;;6199182;23;20040;-77
2023/05/28 10:01:25;;;;;;;26.00;24.20;;;;;;;;;;6197889;23;20028;-77
2023/05/28 10:03:57;;;;;;;25.53;23.80;;;;;;;;;;6199713;23;20353;-76
2023/05/28 10:06:24;;;;;;;22.73;21.23;;;;;;;;;;6200616;23;20017;-77
2023/05/28 10:08:51;;;;;;;23.77;22.20;;;;;;;;;;6199833;23;20052;-77
2023/05/28 10:11:23;;;;;;;24.97;23.27;;;;;;;;;;6201619;23;20021;-77
2023/05/28 10:13:49;;;;;;;24.37;22.67;;;;;;;;;;6199249;23;20524;-78
2023/05/28 10:16:15;;;;;;;26.23;24.43;;;;;;;;;;6200936;23;20023;-77
2023/05/28 10:18:42;;;;;;;28.23;26.17;;;;;;;;;;6198872;23;20344;-77
2023/05/28 10:21:09;;;;;;;25.53;23.77;;;;;;;;;;6199296;23;20024;-77
2023/05/28 10:23:36;;;;;;;23.70;22.13;;;;;;;;;;6197439;23;20058;-78
2023/05/28 10:26:02;;;;;;;24.23;22.57;;;;;;;;;;6199274;23;20491;-77
2023/05/28 10:28:32;;;;;;;22.80;21.27;;;;;;;;;;6201742;23;20425;-77
2023/05/28 10:31:04;;;;;;;23.63;22.13;;;;;;;;;;6173557;23;20105;-79
2023/05/28 10:33:30;;;;;;;22.10;20.70;;;;;;;;;;6201034;23;20092;-79
2023/05/28 10:36:00;;;;;;;25.10;23.50;;;;;;;;;;6198900;23;20013;-79
2023/05/28 10:38:28;;;;;;;23.53;22.03;;;;;;;;;;6198457;23;20042;-79
2023/05/28 10:41:01;;;;;;;24.63;23.07;;;;;;;;;;6201292;23;20012;-79
2023/05/28 10:43:39;;;;;;;25.73;24.23;;;;;;;;;;6199045;23;20016;-78
2023/05/28 10:46:16;;;;;;;23.93;22.37;;;;;;;;;;6200641;23;20019;-79
2023/05/28 10:48:42;;;;;;;22.23;20.73;;;;;;;;;;6200831;23;20020;-79
2023/05/28 10:51:08;;;;;;;21.47;20.00;;;;;;;;;;6199255;23;20025;-79
2023/05/28 10:53:35;;;;;;;23.27;21.70;;;;;;;;;;6198672;23;20021;-79
2023/05/28 10:56:01;;;;;;;25.27;23.57;;;;;;;;;;6174765;23;20048;-78
2023/05/28 10:58:29;;;;;;;25.33;23.67;;;;;;;;;;6199117;23;20080;-79
2023/05/28 11:01:04;;;;;;;25.27;23.60;;;;;;;;;;6198572;23;20020;-79
2023/05/28 11:03:53;;;;;;;22.30;20.90;;;;;;;;;;6200265;23;20388;-79
2023/05/28 11:06:19;;;;;;;23.17;21.67;;;;;;;;;;6198596;23;20024;-79
2023/05/28 11:08:46;;;;;;;22.57;21.17;;;;;;;;;;6198411;23;20090;-79
2023/05/28 11:11:13;;;;;;;20.27;19.00;;;;;;;;;;6199165;23;20020;-79
2023/05/28 11:13:39;;;;;;;21.03;19.73;;;;;;;;;;6199374;23;20020;-77
2023/05/28 11:16:12;;;;;;;19.80;18.50;;;;;;;;;;6199799;23;20460;-77
2023/05/28 11:18:39;;;;;;;21.10;19.80;;;;;;;;;;6197776;23;20020;-84
2023/05/28 11:21:09;;;;;;;19.10;17.83;;;;;;;;;;6198555;23;20067;-77
2023/05/28 11:23:39;;;;;;;19.47;18.17;;;;;;;;;;6198751;23;20527;-78
2023/05/28 11:26:22;;;;;;;17.37;16.20;;;;;;;;;;6201351;23;20158;-79
2023/05/28 11:28:48;;;;;;;18.83;17.57;;;;;;;;;;6201432;23;20028;-78
2023/05/28 11:31:14;;;;;;;21.70;20.30;;;;;;;;;;6200440;23;20448;-77
2023/05/28 11:33:40;;;;;;;15.87;14.77;;;;;;;;;;6199269;23;20078;-78
2023/05/28 11:36:06;;;;;;;14.67;13.67;;;;;;;;;;6200890;23;20055;-78
2023/05/28 11:38:32;;;;;;;14.90;13.90;;;;;;;;;;6199878;23;20025;-78
2023/05/28 11:41:00;;;;;;;14.47;13.47;;;;;;;;;;6199450;23;20106;-78
2023/05/28 11:43:26;;;;;;;14.17;13.17;;;;;;;;;;6199193;23;20087;-78
2023/05/28 11:45:56;;;;;;;15.67;14.60;;;;;;;;;;6199618;23;20448;-77
2023/05/28 11:48:22;;;;;;;14.33;13.33;;;;;;;;;;6199778;23;20044;-78
2023/05/28 11:50:48;;;;;;;16.10;15.00;;;;;;;;;;6199412;23;20466;-78
2023/05/28 11:53:15;;;;;;;16.00;14.90;;;;;;;;;;6199064;23;20024;-78
2023/05/28 11:55:41;;;;;;;15.20;14.20;;;;;;;;;;6199579;23;20017;-78
2023/05/28 11:58:08;;;;;;;14.57;13.57;;;;;;;;;;6199253;23;20123;-78
2023/05/28 12:00:35;;;;;;;15.43;14.40;;;;;;;;;;6199546;23;20110;-77
2023/05/28 12:03:01;;;;;;;13.73;12.77;;;;;;;;;;6199495;23;20518;-77
2023/05/28 12:05:27;;;;;;;12.77;11.88;;;;;;;;;;6198920;23;20036;-77
2023/05/28 12:07:54;;;;;;;12.02;11.18;;;;;;;;;;6199434;23;20017;-77
2023/05/28 12:10:21;;;;;;;13.13;12.23;;;;;;;;;;6198870;23;20021;-77
2023/05/28 12:12:52;;;;;;;12.02;11.18;;;;;;;;;;6198958;23;20020;-77
2023/05/28 12:15:21;;;;;;;14.20;13.20;;;;;;;;;;6198351;23;20025;-77
2023/05/28 12:17:52;;;;;;;14.00;13.03;;;;;;;;;;6201138;23;20352;-77
2023/05/28 12:20:18;;;;;;;12.23;11.37;;;;;;;;;;6198777;23;20438;-77
2023/05/28 12:22:44;;;;;;;13.32;12.43;;;;;;;;;;6199235;23;20638;-77
2023/05/28 12:25:11;;;;;;;11.93;11.13;;;;;;;;;;6200795;23;20083;-77
2023/05/28 12:27:37;;;;;;;12.50;11.63;;;;;;;;;;6198919;23;20048;-77
2023/05/28 12:30:04;;;;;;;12.20;11.40;;;;;;;;;;6174423;23;20016;-78
2023/05/28 12:32:30;;;;;;;12.68;11.82;;;;;;;;;;6200364;23;20452;-77
2023/05/28 12:34:57;;;;;;;11.63;10.88;;;;;;;;;;6198800;23;20021;-78
2023/05/28 12:37:24;;;;;;;11.93;11.13;;;;;;;;;;6199031;23;20498;-78
2023/05/28 12:39:50;;;;;;;11.88;11.13;;;;;;;;;;6200311;23;20024;-77
2023/05/28 12:42:16;;;;;;;17.27;16.08;;;;;;;;;;6197195;23;20858;-77
2023/05/28 12:44:43;;;;;;;11.30;10.50;;;;;;;;;;6198953;23;20027;-78
2023/05/28 12:47:09;;;;;;;18.08;16.88;;;;;;;;;;6197768;23;20709;-78
2023/05/28 12:49:35;;;;;;;14.35;13.35;;;;;;;;;;6197266;23;20680;-77
2023/05/28 12:52:01;;;;;;;12.60;11.70;;;;;;;;;;6200435;23;20031;-78
2023/05/28 12:54:27;;;;;;;12.13;11.33;;;;;;;;;;6200516;23;20435;-78
2023/05/28 12:56:53;;;;;;;14.30;13.30;;;;;;;;;;6200214;23;20023;-78
2023/05/28 12:59:26;;;;;;;12.50;11.67;;;;;;;;;;6200664;23;20092;-78
2023/05/28 13:01:53;;;;;;;15.30;14.38;;;;;;;;;;6198628;23;20023;-78
2023/05/28 13:04:19;;;;;;;12.37;11.53;;;;;;;;;;6174185;23;20099;-78
2023/05/28 13:06:45;;;;;;;12.43;11.57;;;;;;;;;;6199100;23;20020;-78
2023/05/28 13:09:12;;;;;;;12.23;11.40;;;;;;;;;;6198570;23;20020;-78
2023/05/28 13:11:39;;;;;;;12.80;11.93;;;;;;;;;;6198364;23;20494;-78
2023/05/28 13:14:05;;;;;;;13.13;12.23;;;;;;;;;;6201952;23;20035;-78
2023/05/28 13:16:31;;;;;;;12.07;11.23;;;;;;;;;;6198717;23;20020;-78
2023/05/28 13:18:58;;;;;;;10.67;9.87;;;;;;;;;;6198511;23;20056;-78
2023/05/28 13:21:24;;;;;;;12.07;11.20;;;;;;;;;;6199001;23;20467;-78
2023/05/28 13:23:50;;;;;;;12.30;11.40;;;;;;;;;;6200067;23;20395;-78
2023/05/28 13:26:16;;;;;;;13.27;12.43;;;;;;;;;;6200453;23;20119;-79
2023/05/28 13:28:42;;;;;;;11.97;11.13;;;;;;;;;;6200360;23;20016;-78
2023/05/28 13:31:08;;;;;;;9.07;8.40;;;;;;;;;;6199984;23;20021;-78
2023/05/28 13:33:34;;;;;;;9.80;9.20;;;;;;;;;;6198337;23;20413;-78
2023/05/28 13:36:00;;;;;;;11.30;10.50;;;;;;;;;;6200588;23;20012;-78
2023/05/28 13:38:26;;;;;;;11.20;10.43;;;;;;;;;;6198142;23;20036;-78
2023/05/28 13:40:53;;;;;;;11.37;10.57;;;;;;;;;;6198645;23;20021;-78
2023/05/28 13:43:19;;;;;;;10.88;10.18;;;;;;;;;;6198561;23;20020;-78
2023/05/28 13:45:45;;;;;;;11.70;11.00;;;;;;;;;;6198429;23;20050;-78
2023/05/28 13:48:11;;;;;;;9.37;8.77;;;;;;;;;;6198317;23;20024;-78
2023/05/28 13:50:37;;;;;;;11.25;10.55;;;;;;;;;;6198631;23;20146;-78
2023/05/28 13:53:04;;;;;;;12.52;11.73;;;;;;;;;;6198323;23;20020;-77
2023/05/28 13:55:30;;;;;;;9.93;9.33;;;;;;;;;;6200185;23;20381;-77
2023/05/28 13:57:56;;;;;;;9.43;8.82;;;;;;;;;;6198732;23;20246;-78
2023/05/28 14:00:22;;;;;;;10.98;10.27;;;;;;;;;;6197677;23;20052;-78
2023/05/28 14:02:48;;;;;;;11.38;10.68;;;;;;;;;;6198602;23;20028;-78
2023/05/28 14:05:15;;;;;;;11.15;10.45;;;;;;;;;;6173830;23;20150;-78
2023/05/28 14:07:41;;;;;;;11.50;10.80;;;;;;;;;;6200722;23;20020;-78
2023/05/28 14:10:07;;;;;;;9.82;9.23;;;;;;;;;;6173265;23;20099;-78
2023/05/28 14:12:33;;;;;;;13.25;12.45;;;;;;;;;;6198384;23;20024;-77
2023/05/28 14:15:01;;;;;;;10.17;9.47;;;;;;;;;;6198144;23;20016;-77
2023/05/28 14:17:27;;;;;;;10.67;9.97;;;;;;;;;;6198477;23;20024;-78